Time;durP1;ratioP1;P1;durP2;ratioP2;P2;SDS_P1;SDS_P2;PMS_P1;PMS_P2;Temp;Humidity;BMP_temperature;BMP_pressure;BME280_temperature;BME280_humidity;BME280_pressure;Samples;Min_cycle;Max_cycle;Signal;HPM_P1;HPM_P2
2022/07/21 00:00:13;;;;;;;7.90;4.20;;;;;;;;;;103105;1320;25276;-31
2022/07/21 00:02:42;;;;;;;4.70;3.50;;;;;;;;;;103089;1314;22550;-26
2022/07/21 00:05:11;;;;;;;7.00;6.00;;;;;;;;;;103090;1323;26705;-27
2022/07/21 00:07:40;;;;;;;6.40;4.60;;;;;;;;;;103167;1320;25209;-29
2022/07/21 00:10:09;;;;;;;50.90;22.80;;;;;;;;;;103107;1320;22590;-26
2022/07/21 00:12:38;;;;;;;46.70;34.30;;;;;;;;;;103309;1320;22570;-28
2022/07/21 00:15:07;;;;;;;38.40;26.90;;;;;;;;;;103130;1314;22597;-30
2022/07/21 00:17:36;;;;;;;43.40;29.20;;;;;;;;;;103246;1320;22715;-28
2022/07/21 00:20:05;;;;;;;75.70;47.50;;;;;;;;;;103136;1314;22723;-30
2022/07/21 00:22:34;;;;;;;373.30;185.70;;;;;;;;;;103300;1320;22760;-29
2022/07/21 00:25:04;;;;;;;1403.40;591.60;;;;;;;;;;103234;1320;22549;-24
2022/07/21 00:27:33;;;;;;;1007.60;392.60;;;;;;;;;;103101;1320;23965;-28
2022/07/21 00:30:03;;;;;;;1210.30;517.60;;;;;;;;;;103089;1314;22596;-24
2022/07/21 00:32:32;;;;;;;899.70;458.00;;;;;;;;;;103273;1312;22862;-25
2022/07/21 00:35:01;;;;;;;682.40;491.80;;;;;;;;;;103174;1320;22701;-25
2022/07/21 00:37:30;;;;;;;386.30;250.60;;;;;;;;;;103112;1320;22719;-24
2022/07/21 00:39:59;;;;;;;211.90;119.70;;;;;;;;;;103123;1314;22968;-28
2022/07/21 00:42:28;;;;;;;197.70;111.70;;;;;;;;;;103153;1326;22712;-25
2022/07/21 00:44:57;;;;;;;15.50;8.50;;;;;;;;;;103164;1314;22565;-28
2022/07/21 00:47:27;;;;;;;131.50;75.30;;;;;;;;;;103392;1323;22577;-24
2022/07/21 00:49:56;;;;;;;96.30;58.50;;;;;;;;;;103088;1313;22716;-28
2022/07/21 00:52:25;;;;;;;172.70;124.40;;;;;;;;;;103220;1326;22712;-30
2022/07/21 00:54:54;;;;;;;71.10;49.20;;;;;;;;;;103194;1314;22782;-29
2022/07/21 00:57:23;;;;;;;33.00;24.60;;;;;;;;;;103216;1314;22705;-25
2022/07/21 00:59:52;;;;;;;80.80;59.70;;;;;;;;;;103326;1328;22562;-24
2022/07/21 01:02:21;;;;;;;91.00;69.60;;;;;;;;;;103172;1314;23007;-28
2022/07/21 01:04:49;;;;;;;39.70;28.00;;;;;;;;;;103119;1314;22542;-25
2022/07/21 01:07:19;;;;;;;30.10;23.20;;;;;;;;;;103217;1314;22558;-25
2022/07/21 01:09:48;;;;;;;46.80;39.30;;;;;;;;;;103304;1314;22725;-25
2022/07/21 01:12:17;;;;;;;6.00;5.50;;;;;;;;;;103128;1317;22558;-28
2022/07/21 01:14:46;;;;;;;31.90;24.90;;;;;;;;;;103171;1323;22567;-25
2022/07/21 01:17:15;;;;;;;30.60;21.00;;;;;;;;;;103332;1314;23103;-25
2022/07/21 01:19:43;;;;;;;23.70;21.30;;;;;;;;;;103265;1314;22725;-28
2022/07/21 01:22:12;;;;;;;10.10;7.50;;;;;;;;;;103141;1314;22711;-28
2022/07/21 01:24:41;;;;;;;10.50;9.30;;;;;;;;;;103111;1323;22562;-28
2022/07/21 01:27:10;;;;;;;6.70;5.90;;;;;;;;;;103124;1312;22572;-29
2022/07/21 01:29:39;;;;;;;15.30;13.80;;;;;;;;;;103227;1321;22574;-28
2022/07/21 01:32:08;;;;;;;7.30;4.60;;;;;;;;;;103220;1314;24313;-29
2022/07/21 01:34:36;;;;;;;12.20;11.00;;;;;;;;;;103333;1323;23057;-25
2022/07/21 01:37:05;;;;;;;6.00;5.10;;;;;;;;;;103164;1314;22773;-25
2022/07/21 01:42:06;;;;;;;6.80;4.20;;;;;;;;;;103203;1320;22682;-29
2022/07/21 01:44:35;;;;;;;7.60;5.50;;;;;;;;;;103244;1323;22820;-29
2022/07/21 01:47:04;;;;;;;5.50;4.40;;;;;;;;;;103169;1313;22596;-25
2022/07/21 01:49:32;;;;;;;4.60;4.20;;;;;;;;;;103045;1327;22567;-24
2022/07/21 01:52:01;;;;;;;10.10;5.50;;;;;;;;;;103076;1313;22605;-24
2022/07/21 01:54:31;;;;;;;4.60;3.00;;;;;;;;;;103319;1320;22729;-28
2022/07/21 01:57:00;;;;;;;4.50;3.60;;;;;;;;;;103167;1314;23157;-26
2022/07/21 01:59:28;;;;;;;6.80;3.50;;;;;;;;;;103139;1323;22598;-27
2022/07/21 02:01:57;;;;;;;6.40;4.60;;;;;;;;;;103222;1313;22812;-29
2022/07/21 02:04:26;;;;;;;4.10;3.50;;;;;;;;;;103134;1313;22562;-29
2022/07/21 02:06:54;;;;;;;4.70;3.00;;;;;;;;;;103284;1313;22570;-31
2022/07/21 02:09:23;;;;;;;5.90;3.80;;;;;;;;;;103089;1326;22567;-25
2022/07/21 02:11:52;;;;;;;6.00;4.70;;;;;;;;;;103140;1323;22864;-28
2022/07/21 02:14:21;;;;;;;3.70;2.80;;;;;;;;;;103238;1323;22874;-29
2022/07/21 02:16:49;;;;;;;5.70;3.80;;;;;;;;;;103253;1314;22698;-29
2022/07/21 02:19:18;;;;;;;4.00;3.30;;;;;;;;;;103119;1323;22649;-25
2022/07/21 02:21:47;;;;;;;4.70;4.10;;;;;;;;;;103299;1313;23018;-29
2022/07/21 02:24:16;;;;;;;3.90;3.50;;;;;;;;;;103159;1323;22685;-28
2022/07/21 02:26:45;;;;;;;5.20;3.70;;;;;;;;;;103181;1320;22704;-28
2022/07/21 02:29:13;;;;;;;4.80;3.30;;;;;;;;;;103256;1323;22844;-25
2022/07/21 02:31:42;;;;;;;5.20;3.80;;;;;;;;;;103254;1314;22957;-29
2022/07/21 02:34:11;;;;;;;6.80;4.50;;;;;;;;;;103121;1323;22725;-26
2022/07/21 02:36:40;;;;;;;8.70;4.00;;;;;;;;;;103346;1314;22583;-27
2022/07/21 02:39:08;;;;;;;5.90;3.80;;;;;;;;;;103253;1323;22813;-30
2022/07/21 02:41:37;;;;;;;5.10;4.00;;;;;;;;;;103147;1323;22966;-29
2022/07/21 02:44:06;;;;;;;4.30;3.70;;;;;;;;;;103198;1323;22582;-29
2022/07/21 02:46:35;;;;;;;4.90;3.80;;;;;;;;;;103109;1323;22828;-29
2022/07/21 02:49:04;;;;;;;2.80;2.60;;;;;;;;;;103110;1313;22580;-29
2022/07/21 02:51:32;;;;;;;5.60;4.50;;;;;;;;;;103272;1313;22574;-29
2022/07/21 02:54:01;;;;;;;5.90;4.10;;;;;;;;;;103275;1323;22593;-27
2022/07/21 02:56:30;;;;;;;5.10;3.80;;;;;;;;;;103180;1313;22728;-25
2022/07/21 02:58:59;;;;;;;3.80;3.30;;;;;;;;;;103187;1323;23034;-25
2022/07/21 03:01:28;;;;;;;3.20;2.80;;;;;;;;;;103193;1314;22558;-30
2022/07/21 03:03:56;;;;;;;4.70;3.10;;;;;;;;;;103209;1320;22543;-29
2022/07/21 03:06:25;;;;;;;3.60;2.90;;;;;;;;;;103372;1305;22709;-25
2022/07/21 03:08:54;;;;;;;4.30;3.50;;;;;;;;;;103124;1323;23141;-26
2022/07/21 03:11:23;;;;;;;4.10;3.70;;;;;;;;;;103190;1313;22698;-28
2022/07/21 03:13:51;;;;;;;8.00;4.20;;;;;;;;;;103173;1320;22596;-26
2022/07/21 03:16:20;;;;;;;7.60;4.00;;;;;;;;;;103162;1323;22733;-23
2022/07/21 03:18:49;;;;;;;3.30;2.80;;;;;;;;;;103283;1320;22848;-25
2022/07/21 03:21:18;;;;;;;5.90;3.40;;;;;;;;;;103317;1314;22565;-28
2022/07/21 03:23:47;;;;;;;4.50;3.10;;;;;;;;;;103102;1324;22676;-28
2022/07/21 03:26:16;;;;;;;15.80;3.90;;;;;;;;;;103153;1313;22594;-28
2022/07/21 03:28:45;;;;;;;4.70;2.40;;;;;;;;;;103373;1320;22866;-24
2022/07/21 03:31:14;;;;;;;5.50;5.00;;;;;;;;;;103268;1313;22686;-27
2022/07/21 03:33:43;;;;;;;12.60;5.00;;;;;;;;;;103149;1313;22565;-27
2022/07/21 03:36:12;;;;;;;4.40;3.20;;;;;;;;;;103238;1313;22622;-25
2022/07/21 03:38:40;;;;;;;4.60;3.80;;;;;;;;;;103227;1314;22850;-25
2022/07/21 03:41:09;;;;;;;6.60;3.80;;;;;;;;;;103093;1314;22577;-29
2022/07/21 03:43:38;;;;;;;4.90;2.80;;;;;;;;;;103163;1323;22744;-25
2022/07/21 03:46:07;;;;;;;4.60;2.90;;;;;;;;;;103071;1323;22693;-29
2022/07/21 03:48:36;;;;;;;7.00;2.90;;;;;;;;;;103151;1320;22698;-28
2022/07/21 03:51:05;;;;;;;5.90;3.80;;;;;;;;;;103263;1314;22571;-28
2022/07/21 03:53:33;;;;;;;9.20;5.00;;;;;;;;;;103154;1320;22855;-24
2022/07/21 03:56:02;;;;;;;4.10;3.60;;;;;;;;;;103182;1323;22561;-26
2022/07/21 03:58:31;;;;;;;5.60;3.80;;;;;;;;;;103102;1320;22551;-30
2022/07/21 04:01:00;;;;;;;6.40;4.50;;;;;;;;;;103289;1328;24388;-25
2022/07/21 04:03:30;;;;;;;11.10;3.60;;;;;;;;;;102492;1323;873842;-26
2022/07/21 04:06:00;;;;;;;4.80;4.30;;;;;;;;;;103129;1324;22555;-29
2022/07/21 04:08:28;;;;;;;4.00;3.60;;;;;;;;;;102488;1320;1003427;-28
2022/07/21 04:10:58;;;;;;;8.50;4.70;;;;;;;;;;103215;1314;22981;-24
2022/07/21 04:13:27;;;;;;;6.70;4.00;;;;;;;;;;103147;1320;22670;-25
2022/07/21 04:15:56;;;;;;;10.50;4.70;;;;;;;;;;103143;1314;22585;-29
2022/07/21 04:18:25;;;;;;;5.10;3.90;;;;;;;;;;103220;1313;22561;-29
2022/07/21 04:20:54;;;;;;;11.70;3.40;;;;;;;;;;103340;1314;22562;-29
2022/07/21 04:23:22;;;;;;;12.50;4.10;;;;;;;;;;103159;1313;22561;-25
2022/07/21 04:25:51;;;;;;;9.60;3.00;;;;;;;;;;103178;1313;22736;-28
2022/07/21 04:28:20;;;;;;;6.40;4.90;;;;;;;;;;103181;1323;23185;-29
2022/07/21 04:30:49;;;;;;;5.70;4.30;;;;;;;;;;103124;1313;22565;-26
2022/07/21 04:33:18;;;;;;;2.30;2.00;;;;;;;;;;103232;1321;22965;-25
2022/07/21 04:35:46;;;;;;;3.00;1.60;;;;;;;;;;103149;1320;22857;-25
2022/07/21 04:38:24;;;;;;;4.00;3.30;;;;;;;;;;103170;1323;22562;-25
2022/07/21 04:41:01;;;;;;;4.80;3.40;;;;;;;;;;102991;1323;22975;-24
2022/07/21 04:43:30;;;;;;;4.70;3.30;;;;;;;;;;103264;1313;22859;-29
2022/07/21 04:45:59;;;;;;;2.70;2.30;;;;;;;;;;103207;1323;22683;-27
2022/07/21 04:48:27;;;;;;;5.40;4.60;;;;;;;;;;103208;1323;22818;-29
2022/07/21 04:50:56;;;;;;;5.40;3.50;;;;;;;;;;103139;1314;22675;-25
2022/07/21 04:53:33;;;;;;;3.90;3.10;;;;;;;;;;103172;1313;23180;-31
2022/07/21 04:56:02;;;;;;;4.30;2.90;;;;;;;;;;103240;1313;22723;-29
2022/07/21 04:58:31;;;;;;;7.20;4.40;;;;;;;;;;103206;1320;22583;-25
2022/07/21 05:01:00;;;;;;;3.30;3.00;;;;;;;;;;103125;1323;22579;-25
2022/07/21 05:03:29;;;;;;;5.70;3.40;;;;;;;;;;103264;1323;22563;-29
2022/07/21 05:05:57;;;;;;;5.40;3.30;;;;;;;;;;103167;1313;22732;-25
2022/07/21 05:08:27;;;;;;;4.90;3.10;;;;;;;;;;103191;1323;22848;-29
2022/07/21 05:10:56;;;;;;;4.90;3.60;;;;;;;;;;103158;1320;22575;-29
2022/07/21 05:13:33;;;;;;;3.50;2.90;;;;;;;;;;103124;1313;22578;-26
2022/07/21 05:16:11;;;;;;;5.80;3.20;;;;;;;;;;103138;1313;22564;-25
2022/07/21 05:18:48;;;;;;;2.70;2.50;;;;;;;;;;103164;1320;22717;-30
2022/07/21 05:21:26;;;;;;;5.20;2.90;;;;;;;;;;103152;1314;22699;-30
2022/07/21 05:23:54;;;;;;;3.10;2.60;;;;;;;;;;103155;1320;22557;-25
2022/07/21 05:26:23;;;;;;;2.30;1.70;;;;;;;;;;103210;1313;22549;-23
2022/07/21 05:28:52;;;;;;;3.00;2.70;;;;;;;;;;103269;1320;22708;-25
2022/07/21 05:31:21;;;;;;;4.80;2.90;;;;;;;;;;103171;1313;22834;-25
2022/07/21 05:33:58;;;;;;;2.60;2.40;;;;;;;;;;103252;1313;23023;-25
2022/07/21 05:36:35;;;;;;;3.50;3.00;;;;;;;;;;103294;1323;22563;-29
2022/07/21 05:39:13;;;;;;;3.90;2.80;;;;;;;;;;103235;1313;22709;-28
2022/07/21 05:41:51;;;;;;;4.00;2.90;;;;;;;;;;103159;1314;22717;-27
2022/07/21 05:44:20;;;;;;;4.20;3.00;;;;;;;;;;103162;1320;22960;-27
2022/07/21 05:46:48;;;;;;;3.90;3.20;;;;;;;;;;103138;1314;22602;-31
2022/07/21 05:49:17;;;;;;;5.40;2.80;;;;;;;;;;103170;1323;22841;-25
2022/07/21 05:51:46;;;;;;;5.10;3.10;;;;;;;;;;103190;1313;22586;-25
2022/07/21 05:54:15;;;;;;;6.00;3.60;;;;;;;;;;103178;1323;22712;-25
2022/07/21 05:56:44;;;;;;;3.20;2.70;;;;;;;;;;103127;1323;22708;-25
2022/07/21 05:59:12;;;;;;;3.10;2.10;;;;;;;;;;103078;1323;22825;-24
2022/07/21 06:01:41;;;;;;;8.00;3.60;;;;;;;;;;103163;1320;22548;-30
2022/07/21 06:04:10;;;;;;;7.60;2.50;;;;;;;;;;103207;1323;22581;-30
2022/07/21 06:06:39;;;;;;;5.90;4.50;;;;;;;;;;103099;1320;22562;-27
2022/07/21 06:09:08;;;;;;;5.80;2.80;;;;;;;;;;103188;1323;25445;-32
2022/07/21 06:11:37;;;;;;;3.10;2.80;;;;;;;;;;103140;1314;22862;-27
2022/07/21 06:14:06;;;;;;;5.60;3.60;;;;;;;;;;103059;1323;22543;-29
2022/07/21 06:16:35;;;;;;;5.10;2.40;;;;;;;;;;103234;1313;22637;-29
2022/07/21 06:19:06;;;;;;;4.30;2.00;;;;;;;;;;103147;1314;22544;-29
2022/07/21 06:21:35;;;;;;;10.50;3.20;;;;;;;;;;103146;1320;22848;-25
2022/07/21 06:24:04;;;;;;;6.00;3.00;;;;;;;;;;103226;1314;22917;-25
2022/07/21 06:26:33;;;;;;;2.30;2.10;;;;;;;;;;103168;1320;22843;-25
2022/07/21 06:29:01;;;;;;;2.20;1.80;;;;;;;;;;103223;1321;22561;-29
2022/07/21 06:31:30;;;;;;;2.30;2.10;;;;;;;;;;103202;1318;22860;-29
2022/07/21 06:33:59;;;;;;;5.30;2.20;;;;;;;;;;103171;1323;22701;-27
2022/07/21 06:36:28;;;;;;;6.80;3.10;;;;;;;;;;103169;1313;22851;-29
2022/07/21 06:38:57;;;;;;;3.40;2.50;;;;;;;;;;103181;1326;22860;-26
2022/07/21 06:41:25;;;;;;;2.40;1.30;;;;;;;;;;103162;1314;22670;-26
2022/07/21 06:43:54;;;;;;;3.40;2.80;;;;;;;;;;103169;1321;22787;-29
2022/07/21 06:46:23;;;;;;;4.00;2.10;;;;;;;;;;103198;1313;22864;-30
2022/07/21 06:48:52;;;;;;;4.00;2.80;;;;;;;;;;103139;1323;22860;-25
2022/07/21 06:51:20;;;;;;;2.60;1.70;;;;;;;;;;103183;1313;22564;-25
2022/07/21 06:53:49;;;;;;;4.40;1.90;;;;;;;;;;103169;1320;22716;-30
2022/07/21 06:56:18;;;;;;;5.10;1.70;;;;;;;;;;102465;1320;1003442;-26
2022/07/21 06:58:47;;;;;;;2.90;2.60;;;;;;;;;;103136;1321;22724;-24
2022/07/21 07:01:18;;;;;;;2.90;2.40;;;;;;;;;;103168;1326;22730;-25
2022/07/21 07:03:47;;;;;;;3.30;2.00;;;;;;;;;;103147;1323;22735;-29
2022/07/21 07:06:16;;;;;;;3.90;2.10;;;;;;;;;;103210;1315;22717;-24
2022/07/21 07:08:45;;;;;;;18.40;2.60;;;;;;;;;;103142;1320;22545;-28
2022/07/21 07:11:14;;;;;;;7.60;2.80;;;;;;;;;;103201;1314;22569;-24
2022/07/21 07:13:43;;;;;;;2.30;1.60;;;;;;;;;;103135;1320;22717;-26
2022/07/21 07:16:12;;;;;;;9.40;2.50;;;;;;;;;;103118;1323;22736;-31
2022/07/21 07:18:41;;;;;;;4.80;1.80;;;;;;;;;;103127;1326;22567;-25
2022/07/21 07:21:10;;;;;;;2.70;1.90;;;;;;;;;;103205;1313;22825;-29
2022/07/21 07:23:39;;;;;;;2.70;2.10;;;;;;;;;;103328;1320;22595;-29
2022/07/21 07:26:08;;;;;;;4.40;2.80;;;;;;;;;;103259;1320;22465;-25
2022/07/21 07:28:36;;;;;;;3.70;2.40;;;;;;;;;;103135;1323;22814;-25
2022/07/21 07:31:05;;;;;;;5.30;2.30;;;;;;;;;;103218;1314;22705;-26
2022/07/21 07:33:34;;;;;;;3.30;2.10;;;;;;;;;;103258;1323;22722;-29
2022/07/21 07:36:03;;;;;;;2.10;1.80;;;;;;;;;;103150;1313;22828;-29
2022/07/21 07:38:31;;;;;;;6.50;0.90;;;;;;;;;;103247;1323;22573;-25
2022/07/21 07:41:00;;;;;;;5.80;1.70;;;;;;;;;;103245;1313;22702;-29
2022/07/21 07:43:29;;;;;;;5.10;1.70;;;;;;;;;;103141;1323;22577;-25
2022/07/21 07:46:00;;;;;;;6.10;2.70;;;;;;;;;;103214;1320;23008;-27
2022/07/21 07:48:31;;;;;;;2.30;1.60;;;;;;;;;;103282;1320;22984;-25
2022/07/21 07:50:59;;;;;;;3.80;2.30;;;;;;;;;;103208;1320;22546;-25
2022/07/21 07:53:28;;;;;;;2.80;1.70;;;;;;;;;;103122;1324;22551;-30
2022/07/21 07:55:57;;;;;;;2.60;2.20;;;;;;;;;;103113;1313;22879;-28
2022/07/21 07:58:26;;;;;;;9.60;1.90;;;;;;;;;;103155;1314;22562;-29
2022/07/21 08:00:55;;;;;;;2.10;1.90;;;;;;;;;;103209;1304;22559;-24
2022/07/21 08:03:24;;;;;;;2.40;1.50;;;;;;;;;;103192;1313;22873;-30
2022/07/21 08:05:53;;;;;;;2.50;2.00;;;;;;;;;;103372;1320;22724;-24
2022/07/21 08:08:22;;;;;;;3.70;1.70;;;;;;;;;;103178;1320;22578;-25
2022/07/21 08:10:59;;;;;;;3.50;2.00;;;;;;;;;;103175;1313;23063;-28
2022/07/21 08:13:37;;;;;;;2.20;1.30;;;;;;;;;;103216;1326;23180;-30
2022/07/21 08:16:15;;;;;;;4.60;2.00;;;;;;;;;;103139;1323;22556;-28
2022/07/21 08:18:44;;;;;;;2.00;1.80;;;;;;;;;;103158;1314;22564;-29
2022/07/21 08:21:12;;;;;;;3.30;1.80;;;;;;;;;;103066;1316;22573;-25
2022/07/21 08:23:41;;;;;;;3.40;2.30;;;;;;;;;;103158;1326;22790;-24
2022/07/21 08:26:10;;;;;;;2.40;2.10;;;;;;;;;;103183;1314;22564;-24
2022/07/21 08:28:38;;;;;;;3.70;2.50;;;;;;;;;;103202;1323;22860;-28
2022/07/21 08:31:07;;;;;;;5.80;2.10;;;;;;;;;;103145;1313;22966;-29
2022/07/21 08:33:36;;;;;;;3.80;2.60;;;;;;;;;;103217;1323;22723;-28
2022/07/21 08:36:05;;;;;;;2.30;2.00;;;;;;;;;;103125;1313;22690;-27
2022/07/21 08:38:34;;;;;;;2.90;1.40;;;;;;;;;;103142;1320;22683;-28
2022/07/21 08:41:03;;;;;;;2.10;1.80;;;;;;;;;;103145;1323;23218;-26
2022/07/21 08:43:40;;;;;;;2.70;1.60;;;;;;;;;;103115;1320;22863;-30
2022/07/21 08:46:20;;;;;;;3.50;2.00;;;;;;;;;;103182;1320;22564;-28
2022/07/21 08:48:57;;;;;;;2.00;1.70;;;;;;;;;;103300;1320;22556;-30
2022/07/21 08:51:26;;;;;;;15.80;2.30;;;;;;;;;;103160;1314;22704;-28
2022/07/21 08:53:55;;;;;;;2.50;1.50;;;;;;;;;;103116;1326;22558;-24
2022/07/21 08:56:24;;;;;;;4.30;1.40;;;;;;;;;;103114;1324;22547;-28
2022/07/21 08:58:53;;;;;;;6.00;3.30;;;;;;;;;;103209;1320;22890;-23
2022/07/21 09:01:23;;;;;;;3.00;1.40;;;;;;;;;;103156;1314;22571;-25
2022/07/21 09:03:52;;;;;;;2.00;1.70;;;;;;;;;;103204;1323;22852;-26
2022/07/21 09:06:21;;;;;;;3.00;2.00;;;;;;;;;;103198;1314;22860;-24
2022/07/21 09:08:51;;;;;;;15.10;2.50;;;;;;;;;;103130;1314;22859;-25
2022/07/21 09:11:21;;;;;;;3.60;2.40;;;;;;;;;;103105;1315;22724;-26
2022/07/21 09:14:02;;;;;;;3.40;1.50;;;;;;;;;;103133;1320;22682;-25
2022/07/21 09:16:41;;;;;;;2.00;1.60;;;;;;;;;;103242;1314;22575;-25
2022/07/21 09:19:19;;;;;;;4.30;1.70;;;;;;;;;;103184;1320;22574;-25
2022/07/21 09:21:48;;;;;;;3.20;1.70;;;;;;;;;;103324;1313;22567;-24
2022/07/21 09:24:17;;;;;;;2.70;1.30;;;;;;;;;;103277;1320;22694;-25
2022/07/21 09:26:50;;;;;;;6.50;1.80;;;;;;;;;;103134;1314;22739;-29
2022/07/21 09:29:19;;;;;;;3.00;2.60;;;;;;;;;;103170;1320;23029;-24
2022/07/21 09:31:47;;;;;;;5.50;2.20;;;;;;;;;;103291;1315;22549;-24
2022/07/21 09:34:17;;;;;;;3.50;2.50;;;;;;;;;;103296;1323;22549;-24
2022/07/21 09:36:50;;;;;;;3.10;2.60;;;;;;;;;;103205;1320;22578;-24
2022/07/21 09:39:20;;;;;;;4.70;1.90;;;;;;;;;;103174;1320;22561;-29
2022/07/21 09:41:49;;;;;;;3.40;1.60;;;;;;;;;;103143;1320;22562;-24
2022/07/21 09:44:25;;;;;;;5.90;1.50;;;;;;;;;;103180;1326;22680;-28
2022/07/21 09:47:08;;;;;;;12.50;2.20;;;;;;;;;;103246;1320;22561;-25
2022/07/21 09:49:37;;;;;;;4.40;2.40;;;;;;;;;;103195;1325;22864;-25
2022/07/21 09:52:10;;;;;;;4.90;2.00;;;;;;;;;;103194;1325;22680;-25
2022/07/21 09:54:40;;;;;;;4.00;1.90;;;;;;;;;;101670;1320;1003908;-25
2022/07/21 09:57:09;;;;;;;2.90;1.50;;;;;;;;;;103091;1321;23182;-25
2022/07/21 09:59:38;;;;;;;1.90;1.40;;;;;;;;;;103165;1323;22597;-29
2022/07/21 10:02:07;;;;;;;19.20;2.30;;;;;;;;;;103095;1328;22750;-28
2022/07/21 10:04:36;;;;;;;6.40;2.30;;;;;;;;;;103150;1320;22671;-28
2022/07/21 10:07:05;;;;;;;3.60;2.30;;;;;;;;;;103142;1313;22558;-28
2022/07/21 10:09:34;;;;;;;2.50;1.70;;;;;;;;;;103219;1323;22836;-25
2022/07/21 10:12:03;;;;;;;5.70;2.50;;;;;;;;;;103154;1314;22761;-25
2022/07/21 10:14:32;;;;;;;3.80;2.40;;;;;;;;;;103239;1320;22721;-25
2022/07/21 10:17:02;;;;;;;6.60;2.30;;;;;;;;;;103094;1314;22716;-24
2022/07/21 10:19:34;;;;;;;2.50;2.00;;;;;;;;;;103260;1320;22786;-31
2022/07/21 10:22:08;;;;;;;4.70;3.30;;;;;;;;;;103202;1321;22565;-30
2022/07/21 10:24:46;;;;;;;6.50;1.80;;;;;;;;;;103093;1314;22736;-28
2022/07/21 10:27:23;;;;;;;5.00;2.10;;;;;;;;;;103204;1313;22600;-24
2022/07/21 10:29:54;;;;;;;7.30;1.70;;;;;;;;;;103284;1313;22547;-24
2022/07/21 10:32:26;;;;;;;3.00;1.60;;;;;;;;;;103111;1314;25855;-24
2022/07/21 10:34:55;;;;;;;6.80;2.30;;;;;;;;;;103203;1313;22712;-24
2022/07/21 10:37:42;;;;;;;3.40;1.80;;;;;;;;;;103136;1314;22884;-24
2022/07/21 10:40:13;;;;;;;3.00;2.00;;;;;;;;;;103098;1323;22584;-28
2022/07/21 10:42:41;;;;;;;2.50;1.90;;;;;;;;;;103119;1322;24431;-28
2022/07/21 10:45:14;;;;;;;16.40;1.80;;;;;;;;;;103289;1314;22826;-30
2022/07/21 10:47:42;;;;;;;3.90;2.10;;;;;;;;;;103166;1323;23053;-24
2022/07/21 10:50:11;;;;;;;10.60;1.90;;;;;;;;;;103125;1314;22572;-28
2022/07/21 10:52:56;;;;;;;2.30;1.40;;;;;;;;;;103175;1322;22854;-24
2022/07/21 10:55:26;;;;;;;2.40;1.40;;;;;;;;;;103059;1321;22570;-25
2022/07/21 10:57:58;;;;;;;2.80;1.60;;;;;;;;;;103323;1320;22581;-24
2022/07/21 11:00:28;;;;;;;2.20;1.30;;;;;;;;;;103135;1321;22722;-24
2022/07/21 11:02:59;;;;;;;4.00;1.50;;;;;;;;;;103111;1326;22858;-28
2022/07/21 11:05:29;;;;;;;2.90;1.30;;;;;;;;;;103103;1326;22724;-24
2022/07/21 11:08:01;;;;;;;8.20;2.10;;;;;;;;;;103233;1320;22597;-29
2022/07/21 11:10:31;;;;;;;13.00;1.70;;;;;;;;;;103217;1321;22717;-25
2022/07/21 11:12:59;;;;;;;2.10;1.30;;;;;;;;;;103136;1320;22692;-28
2022/07/21 11:15:32;;;;;;;7.70;1.50;;;;;;;;;;103253;1313;22826;-25
2022/07/21 11:18:00;;;;;;;4.30;2.20;;;;;;;;;;103173;1320;22551;-29
2022/07/21 11:20:29;;;;;;;5.00;1.70;;;;;;;;;;103104;1320;22555;-24
2022/07/21 11:23:02;;;;;;;2.80;2.20;;;;;;;;;;103219;1326;22736;-28
2022/07/21 11:25:33;;;;;;;7.10;1.90;;;;;;;;;;103287;1320;22620;-24
2022/07/21 11:28:02;;;;;;;3.00;1.70;;;;;;;;;;103207;1326;22708;-28
2022/07/21 11:30:31;;;;;;;4.60;2.00;;;;;;;;;;103111;1314;22570;-24
2022/07/21 11:33:00;;;;;;;2.20;1.50;;;;;;;;;;103381;1324;22573;-28
2022/07/21 11:35:28;;;;;;;5.80;2.60;;;;;;;;;;103091;1313;22649;-27
2022/07/21 11:38:03;;;;;;;7.30;1.30;;;;;;;;;;103074;1326;22828;-28
2022/07/21 11:40:31;;;;;;;4.70;1.90;;;;;;;;;;103167;1326;22584;-24
2022/07/21 11:43:00;;;;;;;9.90;2.10;;;;;;;;;;103244;1323;22581;-25
2022/07/21 11:45:29;;;;;;;5.00;1.50;;;;;;;;;;103111;1313;22564;-25
2022/07/21 11:47:58;;;;;;;3.30;1.20;;;;;;;;;;103093;1320;22571;-24
2022/07/21 11:50:27;;;;;;;2.50;1.80;;;;;;;;;;103129;1315;22613;-24
2022/07/21 11:52:56;;;;;;;5.30;2.00;;;;;;;;;;103180;1323;22819;-29
2022/07/21 11:55:27;;;;;;;2.50;1.80;;;;;;;;;;103126;1320;22550;-24
2022/07/21 11:57:56;;;;;;;4.50;2.30;;;;;;;;;;103159;1326;22566;-28
2022/07/21 12:00:25;;;;;;;1.80;1.40;;;;;;;;;;103305;1320;22562;-29
2022/07/21 12:03:04;;;;;;;14.00;2.10;;;;;;;;;;102755;1320;596688;-28
2022/07/21 12:05:32;;;;;;;4.20;1.90;;;;;;;;;;103300;1326;22566;-29
2022/07/21 12:08:02;;;;;;;3.10;1.50;;;;;;;;;;103055;1326;22715;-25
2022/07/21 12:10:30;;;;;;;3.80;2.40;;;;;;;;;;103257;1320;22565;-25
2022/07/21 12:13:00;;;;;;;2.40;1.60;;;;;;;;;;103197;1320;22725;-28
2022/07/21 12:15:33;;;;;;;3.60;1.80;;;;;;;;;;103118;1320;22822;-30
2022/07/21 12:18:05;;;;;;;5.30;1.80;;;;;;;;;;103139;1326;22565;-28
2022/07/21 12:20:35;;;;;;;2.20;1.50;;;;;;;;;;103287;1326;22567;-25
2022/07/21 12:23:08;;;;;;;4.20;1.90;;;;;;;;;;103083;1320;22567;-29
2022/07/21 12:25:37;;;;;;;9.40;2.00;;;;;;;;;;103146;1320;22550;-29
2022/07/21 12:28:15;;;;;;;5.30;1.70;;;;;;;;;;103166;1314;22716;-28
2022/07/21 12:30:45;;;;;;;5.00;2.60;;;;;;;;;;103224;1320;22821;-25
2022/07/21 12:33:14;;;;;;;7.50;2.20;;;;;;;;;;103246;1326;23020;-28
2022/07/21 12:35:44;;;;;;;4.40;1.90;;;;;;;;;;103104;1326;22857;-26
2022/07/21 12:38:14;;;;;;;5.20;2.10;;;;;;;;;;103187;1320;22575;-25
2022/07/21 12:40:43;;;;;;;6.90;1.80;;;;;;;;;;103155;1320;22777;-28
2022/07/21 12:43:21;;;;;;;5.20;1.80;;;;;;;;;;103117;1318;22614;-28
2022/07/21 12:45:59;;;;;;;7.80;1.90;;;;;;;;;;103241;1326;22835;-25
2022/07/21 12:48:37;;;;;;;5.50;1.70;;;;;;;;;;103060;1327;22575;-24
2022/07/21 12:51:15;;;;;;;2.20;1.90;;;;;;;;;;103183;1326;23135;-28
2022/07/21 12:53:53;;;;;;;3.20;1.80;;;;;;;;;;103126;1314;22896;-24
2022/07/21 12:56:31;;;;;;;4.00;1.70;;;;;;;;;;103196;1320;22571;-25
2022/07/21 12:59:00;;;;;;;6.20;1.70;;;;;;;;;;103096;1324;22572;-24
2022/07/21 13:01:31;;;;;;;2.10;1.60;;;;;;;;;;103138;1317;22819;-28
2022/07/21 13:04:01;;;;;;;7.60;2.10;;;;;;;;;;103353;1328;24226;-25
2022/07/21 13:06:30;;;;;;;1.90;1.50;;;;;;;;;;103158;1327;22684;-25
2022/07/21 13:08:58;;;;;;;6.20;2.60;;;;;;;;;;103208;1327;22667;-25
2022/07/21 13:11:27;;;;;;;2.20;1.60;;;;;;;;;;103111;1320;22744;-29
2022/07/21 13:13:59;;;;;;;5.40;2.00;;;;;;;;;;103232;1326;22595;-25
2022/07/21 13:16:29;;;;;;;3.10;1.90;;;;;;;;;;103316;1323;22700;-29
2022/07/21 13:18:58;;;;;;;16.00;2.40;;;;;;;;;;103092;1326;25321;-28
2022/07/21 13:21:27;;;;;;;4.30;2.20;;;;;;;;;;103232;1320;22562;-24
2022/07/21 13:23:56;;;;;;;3.90;1.80;;;;;;;;;;103159;1321;22580;-29
2022/07/21 13:26:24;;;;;;;4.80;1.50;;;;;;;;;;103150;1320;22583;-25
2022/07/21 13:28:53;;;;;;;4.70;2.00;;;;;;;;;;103245;1323;22565;-28
2022/07/21 13:31:32;;;;;;;4.90;2.50;;;;;;;;;;103099;1320;22803;-28
2022/07/21 13:34:09;;;;;;;3.00;2.00;;;;;;;;;;103128;1320;22971;-24
2022/07/21 13:36:47;;;;;;;9.00;2.00;;;;;;;;;;103206;1326;22744;-28
2022/07/21 13:39:16;;;;;;;8.20;2.20;;;;;;;;;;103072;1327;22908;-25
2022/07/21 13:41:45;;;;;;;14.80;10.20;;;;;;;;;;103196;1320;22568;-29
2022/07/21 13:44:13;;;;;;;2.60;1.50;;;;;;;;;;103311;1320;22864;-25
2022/07/21 13:46:42;;;;;;;3.30;1.60;;;;;;;;;;103173;1325;22685;-30
2022/07/21 13:49:11;;;;;;;3.80;1.70;;;;;;;;;;103181;1326;22772;-24
2022/07/21 13:51:40;;;;;;;6.40;2.20;;;;;;;;;;103118;1323;22807;-25
2022/07/21 13:54:08;;;;;;;6.90;2.70;;;;;;;;;;103144;1328;22554;-28
2022/07/21 13:56:46;;;;;;;3.50;1.70;;;;;;;;;;103121;1326;22564;-25
2022/07/21 13:59:23;;;;;;;4.00;2.30;;;;;;;;;;103119;1314;22575;-31
2022/07/21 14:01:52;;;;;;;8.20;2.80;;;;;;;;;;103103;1314;22774;-28
2022/07/21 14:04:21;;;;;;;54.80;38.10;;;;;;;;;;103134;1324;22735;-28
2022/07/21 14:06:51;;;;;;;3.20;1.70;;;;;;;;;;103107;1314;22825;-25
2022/07/21 14:09:20;;;;;;;2.10;1.80;;;;;;;;;;103133;1326;22962;-29
2022/07/21 14:11:49;;;;;;;2.50;1.80;;;;;;;;;;103201;1315;22579;-28
2022/07/21 14:14:21;;;;;;;26.30;16.20;;;;;;;;;;103167;1326;22562;-29
2022/07/21 14:16:50;;;;;;;6.60;3.10;;;;;;;;;;103149;1321;22552;-29
2022/07/21 14:19:19;;;;;;;4.60;1.50;;;;;;;;;;103143;1320;22821;-29
2022/07/21 14:21:48;;;;;;;11.10;2.60;;;;;;;;;;103155;1314;22544;-29
2022/07/21 14:26:49;;;;;;;3.30;1.70;;;;;;;;;;103169;1321;22568;-28
2022/07/21 14:29:18;;;;;;;4.20;1.40;;;;;;;;;;103113;1324;23050;-25
2022/07/21 14:31:47;;;;;;;4.40;1.60;;;;;;;;;;103119;1324;22565;-30
2022/07/21 14:34:16;;;;;;;4.70;2.00;;;;;;;;;;103152;1326;22720;-28
2022/07/21 14:36:46;;;;;;;4.10;2.00;;;;;;;;;;103144;1313;22552;-25
2022/07/21 14:39:15;;;;;;;3.00;1.60;;;;;;;;;;103240;1326;22705;-26
2022/07/21 14:41:44;;;;;;;6.40;2.30;;;;;;;;;;103139;1314;22794;-27
2022/07/21 14:44:13;;;;;;;4.70;1.80;;;;;;;;;;103211;1320;22717;-30
2022/07/21 14:46:42;;;;;;;16.50;2.20;;;;;;;;;;103207;1320;22577;-26